WetterOnline ( http://www.wetteronline.de )

Wetter aktuell Hittbergen

Aktuelles Wetter: Boizenburg (46m)

6-stündlich | Neueste Meldungen
Ortszeit Temperatur Wetter
Mo, 22.01. 1:00 -1.0° C bedeckt
So, 21.01. 19:00 -1.3° C Nebel
So, 21.01. 13:00 -1.4° C Nebel
So, 21.01. 7:00 -1.9° C Nebel
So, 21.01. 1:00 -0.7° C bewölkt
Sa, 20.01. 19:00 1.4° C bedeckt
Sa, 20.01. 13:00 1.8° C bedeckt
Sa, 20.01. 7:00 1.1° C bedeckt
Ortszeit Temperatur Wetter
Mo, 22.01. 1:00 -1.0° C bedeckt
Mo, 22.01. 0:40 -1.0° C bedeckt
Mo, 22.01. 0:30 -1.2° C bedeckt
Mo, 22.01. 0:20 -1.2° C bedeckt
Mo, 22.01. 0:10 -1.1° C bedeckt
Mo, 22.01. 0:00 -1.3° C bedeckt
So, 21.01. 23:50 -1.3° C bedeckt
So, 21.01. 23:30 -1.1° C bewölkt
So, 21.01. 23:00 -1.2° C bedeckt
So, 21.01. 22:30 -1.0° C bewölkt
So, 21.01. 22:00 -0.9° C Nebel
Ortszeit Relative Feuchte Sichtweite
Mo, 22.01. 1:00 99% 2.9 km
So, 21.01. 19:00 100% 0.2 km
So, 21.01. 13:00 99% 100 m
So, 21.01. 7:00 99% <100 m
So, 21.01. 1:00 99% 2.7 km
Sa, 20.01. 19:00 92% 5.0 km
Sa, 20.01. 13:00 88% 12 km
Sa, 20.01. 7:00 94% 4.8 km
Ortszeit Relative Feuchte Sichtweite
Mo, 22.01. 1:00 99% 2.9 km
Mo, 22.01. 0:40 99% -
Mo, 22.01. 0:30 98% 3.9 km
Mo, 22.01. 0:20 98% -
Mo, 22.01. 0:10 99% -
Mo, 22.01. 0:00 99% 4.3 km
So, 21.01. 23:50 99% -
So, 21.01. 23:30 99% 2.8 km
So, 21.01. 23:00 99% 1.9 km
So, 21.01. 22:30 100% 2.3 km
So, 21.01. 22:00 100% 0.5 km
Ortszeit Niederschlagsmenge Niederschlagsart
Mo, 22.01. 1:00 0.0 l/m2 in 6 Std. -
So, 21.01. 19:00 0.1 l/m2 in 12 Std. Sprühregen
So, 21.01. 13:00 0.0 l/m2 in 6 Std. -
So, 21.01. 7:00 0.0 l/m2 in 12 Std. -
So, 21.01. 1:00 0.0 l/m2 in 6 Std. -
Sa, 20.01. 19:00 0.1 l/m2 in 12 Std. Regen
Sa, 20.01. 13:00 0.1 l/m2 in 6 Std. Schnee, Regen
Sa, 20.01. 7:00 0.4 l/m2 in 12 Std. Schnee, Regen
Ortszeit Niederschlagsmenge Niederschlagsart
Mo, 22.01. 1:00 0.0 l/m2 in 1 Std. -
Mo, 22.01. 0:40 keine Meldung -
Mo, 22.01. 0:30 0.0 l/m2 in 1 Std. -
Mo, 22.01. 0:20 keine Meldung -
Mo, 22.01. 0:10 keine Meldung -
Mo, 22.01. 0:00 0.0 l/m2 in 1 Std. -
So, 21.01. 23:50 keine Meldung -
So, 21.01. 23:30 0.0 l/m2 in 1 Std. -
So, 21.01. 23:00 0.0 l/m2 in 1 Std. -
So, 21.01. 22:30 0.0 l/m2 in 1 Std. -
So, 21.01. 22:00 0.0 l/m2 in 1 Std. -
Ortszeit Stärke Spitze Richtung
km/h Bft. km/h Grad Sektor
Mo, 22.01. 1:00 14 3 25 130° SO
So, 21.01. 19:00 7 2 14 160° S
So, 21.01. 13:00 0 0 11 - -
So, 21.01. 7:00 4 1 11 350° N
So, 21.01. 1:00 7 2 14 110° O
Sa, 20.01. 19:00 9 2 20 130° SO
Sa, 20.01. 13:00 9 2 19 200° S
Sa, 20.01. 7:00 9 2 22 200° S
Ortszeit Stärke Spitze Richtung
km/h Bft. km/h Grad Sektor
Mo, 22.01. 1:00 14 3 25 130° SO
Mo, 22.01. 0:40 13 3 - 140° SO
Mo, 22.01. 0:30 18 3 25 140° SO
Mo, 22.01. 0:20 18 3 - 140° SO
Mo, 22.01. 0:10 14 3 - 130° SO
Mo, 22.01. 0:00 19 3 26 130° SO
So, 21.01. 23:50 19 3 - 130° SO
So, 21.01. 23:30 14 3 22 130° SO
So, 21.01. 23:00 14 3 25 120° SO
So, 21.01. 22:30 14 3 22 120° SO
So, 21.01. 22:00 15 3 20 120° SO
Ortszeit Untergrenze Bedeckung Gattung
total tief tief mittel hoch
Mo, 22.01. 1:00 90 m 8/8 8/8 - - -
So, 21.01. 19:00 <30 m 8/8 8/8 - - -
So, 21.01. 13:00 <30 m 8/8 8/8 - - -
So, 21.01. 7:00 <30 m 8/8 8/8 - - -
So, 21.01. 1:00 1800 m 7/8 7/8 - - -
Sa, 20.01. 19:00 1410 m 8/8 8/8 - - -
Sa, 20.01. 13:00 390 m 8/8 8/8 - - -
Sa, 20.01. 7:00 210 m 8/8 8/8 - - -
Ortszeit Bedeckungsgrad in Achtel und Wolkenuntergrenze
Mo, 22.01. 1:00 8(90m)
Mo, 22.01. 0:40 8(120m)
Mo, 22.01. 0:30 8(120m)
Mo, 22.01. 0:20 8(120m)
Mo, 22.01. 0:10 8(90m)
Mo, 22.01. 0:00 8(90m)
So, 21.01. 23:50 8(90m)
So, 21.01. 23:30 7(60m)
So, 21.01. 23:00 8(60m)
So, 21.01. 22:30 7(30m)
So, 21.01. 22:00 7(<30m)
Ortszeit Luftdruck NN (hPa) Tendenz (hPa in 3 Std.)
Mo, 22.01. 1:00 1015 - 1,2
So, 21.01. 19:00 1017 + 0,4
So, 21.01. 13:00 1015 + 2,2
So, 21.01. 7:00 1009 + 2,7
So, 21.01. 1:00 1004 + 1,0
Sa, 20.01. 19:00 1002 - 0,6
Sa, 20.01. 13:00 1004 - 1,1
Sa, 20.01. 7:00 1006 - 0,7
Ortszeit Luftdruck NN (hPa) Tendenz (hPa in 3 Std.)
Mo, 22.01. 1:00 1015 - 1,2
Mo, 22.01. 0:40 1015 keine Meldung
Mo, 22.01. 0:30 1015 - 1,5
Mo, 22.01. 0:20 1015 keine Meldung
Mo, 22.01. 0:10 1016 keine Meldung
Mo, 22.01. 0:00 1016 - 1,7
So, 21.01. 23:50 1016 keine Meldung
So, 21.01. 23:30 1016 - 1,2
So, 21.01. 23:00 1016 - 1,4
So, 21.01. 22:30 1016 - 1,2
So, 21.01. 22:00 1016 - 0,9
Ortszeit Schneehöhe (cm)
Mo, 22.01. 1:00 0
So, 21.01. 19:00 0
So, 21.01. 13:00 0
So, 21.01. 7:00 0
So, 21.01. 1:00 0
Sa, 20.01. 19:00 0
Sa, 20.01. 13:00 0
Sa, 20.01. 7:00 0
Ortszeit Schneehöhe (cm)
Mo, 22.01. 1:00 0
Mo, 22.01. 0:40 0
Mo, 22.01. 0:30 0
Mo, 22.01. 0:20 0
Mo, 22.01. 0:10 0
Mo, 22.01. 0:00 0
So, 21.01. 23:50 0
So, 21.01. 23:30 0
So, 21.01. 23:00 0
So, 21.01. 22:30 0
So, 21.01. 22:00 0
Link zu dieser Seite / Seite empfehlen

Das Wetter in ...